createdAt,value
2018-12-29T00:00:58.398Z,56.33
2018-12-29T00:06:03.524Z,44.77
2018-12-29T00:11:08.988Z,67.33
2018-12-29T00:16:15.210Z,45.93
2018-12-29T00:21:20.288Z,48.93
2018-12-29T00:26:25.304Z,61.80
2018-12-29T00:31:30.634Z,53.27
2018-12-29T00:36:37.017Z,42.97
2018-12-29T00:41:41.944Z,46.27
2018-12-29T00:46:49.280Z,48.07
2018-12-29T00:51:54.209Z,44.47
2018-12-29T00:57:02.777Z,42.93
2018-12-29T01:02:07.382Z,48.73
2018-12-29T01:07:12.749Z,44.40
2018-12-29T01:12:20.440Z,49.60
2018-12-29T01:17:25.312Z,47.90
2018-12-29T01:22:33.079Z,42.67
2018-12-29T01:27:38.748Z,47.60
2018-12-29T01:32:48.955Z,46.33
2018-12-29T01:37:53.634Z,43.63
2018-12-29T01:42:59.394Z,47.47
2018-12-29T01:48:05.059Z,45.27
2018-12-29T01:53:09.742Z,54.97
2018-12-29T01:58:14.727Z,40.13
2018-12-29T02:03:19.994Z,50.63
2018-12-29T02:08:24.895Z,52.37
2018-12-29T02:13:29.255Z,45.57
2018-12-29T02:18:34.025Z,44.23
2018-12-29T02:23:39.255Z,48.37
2018-12-29T02:28:47.850Z,48.70
2018-12-29T02:33:53.037Z,44.60
2018-12-29T02:38:58.602Z,46.53
2018-12-29T02:44:03.851Z,41.07
2018-12-29T02:49:13.372Z,60.03
2018-12-29T02:54:18.176Z,44.03
2018-12-29T02:59:22.736Z,43.90
2018-12-29T03:04:30.351Z,36.63
2018-12-29T03:09:36.060Z,45.00
2018-12-29T03:14:41.474Z,41.30
2018-12-29T03:19:46.789Z,39.25
2018-12-29T03:24:51.404Z,37.60
2018-12-29T03:29:57.770Z,46.35
2018-12-29T03:35:02.080Z,44.53
2018-12-29T03:40:07.792Z,44.33
2018-12-29T03:45:13.334Z,47.98
2018-12-29T03:50:18.505Z,42.33
2018-12-29T03:55:24.103Z,42.53
2018-12-29T04:00:28.402Z,51.13
2018-12-29T04:05:33.638Z,46.97
2018-12-29T04:10:38.328Z,44.03
2018-12-29T04:15:45.106Z,46.67
2018-12-29T04:20:50.183Z,41.67
2018-12-29T04:25:54.819Z,40.23
2018-12-29T04:31:01.390Z,37.67
2018-12-29T04:36:08.837Z,48.73
2018-12-29T04:41:15.795Z,44.30
2018-12-29T04:46:21.202Z,41.73
2018-12-29T04:51:25.893Z,42.50
2018-12-29T04:56:31.707Z,48.98
2018-12-29T05:01:38.205Z,47.27
2018-12-29T05:06:42.769Z,44.80
2018-12-29T05:11:50.819Z,39.13
2018-12-29T05:16:56.627Z,47.95
2018-12-29T05:22:00.907Z,43.87
2018-12-29T05:27:07.598Z,41.83
2018-12-29T05:32:15.520Z,46.00
2018-12-29T05:37:22.321Z,44.63
2018-12-29T05:42:26.893Z,41.48
2018-12-29T05:47:31.819Z,45.40
2018-12-29T05:52:36.860Z,45.30
2018-12-29T05:57:41.868Z,45.23
2018-12-29T06:02:48.688Z,44.73
2018-12-29T06:07:56.414Z,48.03
2018-12-29T06:13:01.643Z,38.07
2018-12-29T06:18:06.774Z,52.03
2018-12-29T06:23:11.785Z,39.27
2018-12-29T06:28:17.671Z,50.37
2018-12-29T06:33:24.521Z,46.07
2018-12-29T06:38:31.297Z,46.63
2018-12-29T06:43:37.061Z,44.87
2018-12-29T06:48:42.330Z,41.00
2018-12-29T06:53:46.669Z,41.53
2018-12-29T06:58:52.170Z,52.45
2018-12-29T07:03:56.652Z,48.17
2018-12-29T07:09:01.202Z,45.53
2018-12-29T07:14:05.901Z,38.40
2018-12-29T07:19:11.780Z,40.53
2018-12-29T07:24:16.981Z,48.07
2018-12-29T07:29:25.086Z,42.37
2018-12-29T07:34:29.777Z,44.15
2018-12-29T07:39:34.606Z,47.83
2018-12-29T07:44:40.483Z,41.57
2018-12-29T07:49:47.142Z,43.25
2018-12-29T07:54:53.098Z,45.77
2018-12-29T07:59:59.055Z,44.27
2018-12-29T08:05:03.611Z,40.10
2018-12-29T08:10:10.889Z,51.00
2018-12-29T08:15:17.206Z,37.37
2018-12-29T08:20:22.600Z,40.78
2018-12-29T08:25:28.162Z,40.95
2018-12-29T08:30:34.746Z,40.67
2018-12-29T08:35:39.559Z,36.93
2018-12-29T08:40:44.143Z,43.23
2018-12-29T08:45:48.724Z,38.33
2018-12-29T08:50:53.688Z,34.00
2018-12-29T08:55:58.933Z,42.33
2018-12-29T09:01:03.566Z,41.63
2018-12-29T09:06:08.136Z,37.00
2018-12-29T09:11:16.810Z,34.47
2018-12-29T09:16:28.599Z,38.33
2018-12-29T09:21:39.797Z,37.37
2018-12-29T09:26:49.292Z,34.57
2018-12-29T09:32:00.650Z,36.10
2018-12-29T09:37:20.653Z,41.53
2018-12-29T09:42:32.039Z,45.65
2018-12-29T09:47:38.723Z,41.73
2018-12-29T09:52:47.036Z,41.10
2018-12-29T09:57:53.025Z,38.27
2018-12-29T10:02:57.930Z,43.13
2018-12-29T10:08:02.956Z,37.65
2018-12-29T10:13:10.280Z,41.10
2018-12-29T10:18:17.017Z,36.87
2018-12-29T10:23:22.172Z,36.80
2018-12-29T10:28:27.724Z,38.65
2018-12-29T10:33:32.753Z,40.80
2018-12-29T10:38:37.901Z,41.13
2018-12-29T10:43:42.260Z,39.03
2018-12-29T10:48:47.588Z,37.53
2018-12-29T10:53:54.974Z,36.80
2018-12-29T10:59:00.256Z,42.23
2018-12-29T11:04:04.963Z,43.77
2018-12-29T11:09:10.568Z,43.23
2018-12-29T11:14:15.324Z,44.97
2018-12-29T11:19:22.972Z,42.10
2018-12-29T11:24:28.773Z,43.17
2018-12-29T11:29:34.564Z,45.43
2018-12-29T11:34:40.159Z,36.87
2018-12-29T11:39:48.107Z,37.50
2018-12-29T11:44:53.301Z,36.80
2018-12-29T11:49:59.374Z,39.07
2018-12-29T11:55:05.857Z,29.27
2018-12-29T12:00:11.089Z,27.27
2018-12-29T12:05:15.979Z,27.60
2018-12-29T12:10:22.363Z,28.83
2018-12-29T12:15:28.309Z,28.77
2018-12-29T12:20:32.914Z,26.70
2018-12-29T12:25:39.011Z,27.33
2018-12-29T12:30:47.340Z,31.33
2018-12-29T12:35:52.971Z,27.83
2018-12-29T12:40:59.879Z,24.03
2018-12-29T12:46:04.505Z,33.07
2018-12-29T12:51:08.883Z,26.62
2018-12-29T12:56:13.937Z,29.17
2018-12-29T13:01:19.829Z,27.70
2018-12-29T13:06:24.804Z,34.77
2018-12-29T13:11:30.363Z,32.07
2018-12-29T13:16:36.155Z,27.00
2018-12-29T13:21:41.395Z,30.40
2018-12-29T13:26:45.765Z,28.63
2018-12-29T13:31:51.529Z,28.87
2018-12-29T13:37:00.764Z,27.33
2018-12-29T13:42:06.936Z,28.07
2018-12-29T13:47:11.879Z,28.13
2018-12-29T13:52:17.620Z,32.00
2018-12-29T13:57:22.888Z,27.63
2018-12-29T14:02:27.895Z,33.13
2018-12-29T14:07:32.939Z,29.53
2018-12-29T14:12:37.975Z,31.40
2018-12-29T14:17:43.764Z,27.77
2018-12-29T14:22:49.019Z,25.10
2018-12-29T14:27:54.193Z,24.57
2018-12-29T14:32:59.477Z,25.33
2018-12-29T14:38:04.008Z,29.43
2018-12-29T14:43:10.288Z,26.50
2018-12-29T14:48:15.833Z,31.77
2018-12-29T14:53:20.520Z,30.07
2018-12-29T14:58:25.133Z,33.43
2018-12-29T15:03:31.257Z,27.80
2018-12-29T15:08:39.180Z,29.43
2018-12-29T15:13:47.727Z,32.17
2018-12-29T15:18:56.698Z,26.03
2018-12-29T15:24:03.544Z,28.17
2018-12-29T15:29:08.487Z,25.05
2018-12-29T15:34:13.580Z,23.60
2018-12-29T15:39:18.783Z,25.77
2018-12-29T15:44:23.313Z,28.77
2018-12-29T15:49:30.341Z,27.47
2018-12-29T15:54:34.789Z,25.93
2018-12-29T15:59:39.174Z,32.47
2018-12-29T16:04:44.427Z,34.97
2018-12-29T16:09:49.671Z,32.43
2018-12-29T16:14:54.899Z,32.20
2018-12-29T16:19:59.668Z,34.53
2018-12-29T16:25:04.722Z,37.37
2018-12-29T16:30:10.079Z,34.80
2018-12-29T16:35:18.052Z,38.17
2018-12-29T16:40:23.254Z,37.53
2018-12-29T16:45:27.781Z,39.60
2018-12-29T16:50:33.222Z,40.30
2018-12-29T16:55:38.085Z,44.05
2018-12-29T17:00:43.504Z,44.13
2018-12-29T17:05:48.111Z,38.37
2018-12-29T17:10:52.497Z,39.37
2018-12-29T17:15:57.757Z,42.10
2018-12-29T17:21:02.478Z,40.80
2018-12-29T17:26:07.089Z,42.90
2018-12-29T17:31:12.673Z,35.85
2018-12-29T17:36:17.507Z,36.77
2018-12-29T17:41:22.046Z,33.13
2018-12-29T17:46:27.274Z,38.40
2018-12-29T17:51:32.235Z,37.20
2018-12-29T17:56:37.865Z,35.97
2018-12-29T18:01:43.102Z,38.50
2018-12-29T18:06:47.767Z,39.07
2018-12-29T18:11:53.025Z,37.23
2018-12-29T18:16:57.579Z,46.50
2018-12-29T18:22:02.281Z,34.87
2018-12-29T18:27:07.338Z,32.00
2018-12-29T18:32:13.412Z,32.27
2018-12-29T18:37:21.656Z,32.33
2018-12-29T18:42:29.557Z,33.13
2018-12-29T18:47:34.505Z,30.60
2018-12-29T18:52:40.118Z,26.83
2018-12-29T18:57:45.602Z,28.83
2018-12-29T19:02:50.388Z,26.53
2018-12-29T19:07:55.184Z,29.70
2018-12-29T19:13:00.119Z,27.93
2018-12-29T19:18:06.237Z,26.23
2018-12-29T19:23:11.585Z,28.27
2018-12-29T19:28:18.044Z,29.50
2018-12-29T19:33:23.108Z,26.63
2018-12-29T19:38:28.669Z,29.73
2018-12-29T19:43:33.876Z,26.97
2018-12-29T19:48:38.731Z,24.43
2018-12-29T19:53:43.120Z,27.30
2018-12-29T19:58:49.916Z,23.67
2018-12-29T20:03:55.212Z,25.17
2018-12-29T20:09:00.803Z,28.57
2018-12-29T20:14:08.000Z,26.73
2018-12-29T20:19:12.792Z,28.37
2018-12-29T20:24:17.795Z,30.23
2018-12-29T20:29:22.742Z,32.87
2018-12-29T20:34:28.841Z,32.07
2018-12-29T20:39:35.560Z,34.13
2018-12-29T20:44:40.682Z,34.70
2018-12-29T20:49:45.521Z,37.07
2018-12-29T20:54:50.702Z,38.50
2018-12-29T20:59:55.626Z,38.67
2018-12-29T21:05:02.852Z,42.20
2018-12-29T21:10:07.670Z,39.20
2018-12-29T21:15:13.567Z,39.07
2018-12-29T21:20:19.011Z,38.80
2018-12-29T21:25:23.553Z,35.60
2018-12-29T21:30:30.861Z,35.08
2018-12-29T21:35:35.548Z,38.80
2018-12-29T21:40:39.960Z,30.13
2018-12-29T21:45:47.732Z,30.55
2018-12-29T21:50:52.315Z,38.83
2018-12-29T21:55:56.702Z,27.77
2018-12-29T22:01:03.339Z,27.63
2018-12-29T22:06:07.765Z,26.33
2018-12-29T22:11:13.139Z,24.87
2018-12-29T22:16:19.214Z,27.33
2018-12-29T22:21:24.232Z,20.60
2018-12-29T22:26:30.219Z,19.70
2018-12-29T22:31:39.395Z,19.57
2018-12-29T22:36:47.005Z,20.70
2018-12-29T22:41:52.420Z,15.00
2018-12-29T22:46:57.885Z,16.43
2018-12-29T22:52:07.862Z,16.03
2018-12-29T22:57:12.820Z,16.83
2018-12-29T23:02:17.715Z,15.23
2018-12-29T23:07:22.743Z,12.37
2018-12-29T23:12:27.108Z,12.27
2018-12-29T23:17:32.634Z,15.30
2018-12-29T23:22:38.037Z,15.20
2018-12-29T23:27:43.136Z,13.90
2018-12-29T23:32:48.812Z,11.47
2018-12-29T23:37:54.110Z,10.60
2018-12-29T23:43:02.129Z,11.87
2018-12-29T23:48:08.356Z,12.82
2018-12-29T23:53:13.914Z,10.80
2018-12-29T23:58:19.184Z,14.17
